sensor_id;sensor_type;location;lat;lon;timestamp;temperature;humidity
15554;DHT22;7878;44.632;10.942;2024-01-30T00:01:22;3.60;99.90
15554;DHT22;7878;44.632;10.942;2024-01-30T00:03:48;3.50;99.90
15554;DHT22;7878;44.632;10.942;2024-01-30T00:06:14;3.50;99.90
15554;DHT22;7878;44.632;10.942;2024-01-30T00:08:39;3.50;99.90
15554;DHT22;7878;44.632;10.942;2024-01-30T00:11:05;3.50;99.90
15554;DHT22;7878;44.632;10.942;2024-01-30T00:13:32;3.30;99.90
15554;DHT22;7878;44.632;10.942;2024-01-30T00:15:58;3.30;99.90
15554;DHT22;7878;44.632;10.942;2024-01-30T00:18:24;3.30;99.90
15554;DHT22;7878;44.632;10.942;2024-01-30T00:20:49;3.30;99.90
15554;DHT22;7878;44.632;10.942;2024-01-30T00:23:15;3.30;99.90
15554;DHT22;7878;44.632;10.942;2024-01-30T00:25:40;3.30;99.90
15554;DHT22;7878;44.632;10.942;2024-01-30T00:28:06;3.30;99.90
15554;DHT22;7878;44.632;10.942;2024-01-30T00:30:32;3.30;99.90
15554;DHT22;7878;44.632;10.942;2024-01-30T00:32:57;3.20;99.90
15554;DHT22;7878;44.632;10.942;2024-01-30T00:35:23;3.20;99.90
15554;DHT22;7878;44.632;10.942;2024-01-30T00:37:49;3.20;99.90
15554;DHT22;7878;44.632;10.942;2024-01-30T00:40:14;3.20;99.90
15554;DHT22;7878;44.632;10.942;2024-01-30T00:42:44;3.30;99.90
15554;DHT22;7878;44.632;10.942;2024-01-30T00:45:16;3.30;99.90
15554;DHT22;7878;44.632;10.942;2024-01-30T00:47:43;3.30;99.90
15554;DHT22;7878;44.632;10.942;2024-01-30T00:50:09;3.30;99.90
15554;DHT22;7878;44.632;10.942;2024-01-30T00:52:35;3.20;99.90
15554;DHT22;7878;44.632;10.942;2024-01-30T00:55:01;3.20;99.90
15554;DHT22;7878;44.632;10.942;2024-01-30T00:57:27;3.10;99.90
15554;DHT22;7878;44.632;10.942;2024-01-30T00:59:52;3.00;99.90
15554;DHT22;7878;44.632;10.942;2024-01-30T01:02:18;3.00;99.90
15554;DHT22;7878;44.632;10.942;2024-01-30T01:04:44;3.00;99.90
15554;DHT22;7878;44.632;10.942;2024-01-30T01:07:11;2.90;99.90
15554;DHT22;7878;44.632;10.942;2024-01-30T01:09:37;3.00;99.90
15554;DHT22;7878;44.632;10.942;2024-01-30T01:12:03;2.90;99.90
15554;DHT22;7878;44.632;10.942;2024-01-30T01:14:29;3.00;99.90
15554;DHT22;7878;44.632;10.942;2024-01-30T01:16:55;3.00;99.90
15554;DHT22;7878;44.632;10.942;2024-01-30T01:19:22;3.00;99.90
15554;DHT22;7878;44.632;10.942;2024-01-30T01:21:47;3.10;99.90
15554;DHT22;7878;44.632;10.942;2024-01-30T01:24:13;3.00;99.90
15554;DHT22;7878;44.632;10.942;2024-01-30T01:26:39;3.00;99.90
15554;DHT22;7878;44.632;10.942;2024-01-30T01:29:06;3.00;99.90
15554;DHT22;7878;44.632;10.942;2024-01-30T01:31:37;3.10;99.90
15554;DHT22;7878;44.632;10.942;2024-01-30T01:34:12;3.10;99.90
15554;DHT22;7878;44.632;10.942;2024-01-30T01:36:38;3.10;99.90
15554;DHT22;7878;44.632;10.942;2024-01-30T01:39:04;3.20;99.90
15554;DHT22;7878;44.632;10.942;2024-01-30T01:41:31;3.20;99.90
15554;DHT22;7878;44.632;10.942;2024-01-30T01:43:57;3.20;99.90
15554;DHT22;7878;44.632;10.942;2024-01-30T01:46:23;3.20;99.90
15554;DHT22;7878;44.632;10.942;2024-01-30T01:48:49;3.20;99.90
15554;DHT22;7878;44.632;10.942;2024-01-30T01:51:15;3.20;99.90
15554;DHT22;7878;44.632;10.942;2024-01-30T01:53:42;3.20;99.90
15554;DHT22;7878;44.632;10.942;2024-01-30T01:56:08;3.30;99.90
15554;DHT22;7878;44.632;10.942;2024-01-30T01:58:34;3.20;99.90
15554;DHT22;7878;44.632;10.942;2024-01-30T02:01:00;3.20;99.90
15554;DHT22;7878;44.632;10.942;2024-01-30T02:03:27;3.20;99.90
15554;DHT22;7878;44.632;10.942;2024-01-30T02:05:54;3.20;99.90
15554;DHT22;7878;44.632;10.942;2024-01-30T02:08:20;3.20;99.90
15554;DHT22;7878;44.632;10.942;2024-01-30T02:10:45;3.30;99.90
15554;DHT22;7878;44.632;10.942;2024-01-30T02:13:11;3.30;99.90
15554;DHT22;7878;44.632;10.942;2024-01-30T02:15:37;3.30;99.90
15554;DHT22;7878;44.632;10.942;2024-01-30T02:18:03;3.30;99.90
15554;DHT22;7878;44.632;10.942;2024-01-30T02:20:30;3.40;99.90
15554;DHT22;7878;44.632;10.942;2024-01-30T02:22:58;3.40;99.90
15554;DHT22;7878;44.632;10.942;2024-01-30T02:25:40;3.40;99.90
15554;DHT22;7878;44.632;10.942;2024-01-30T02:28:15;3.50;99.90
15554;DHT22;7878;44.632;10.942;2024-01-30T02:30:43;3.50;99.90
15554;DHT22;7878;44.632;10.942;2024-01-30T02:33:08;3.60;99.90
15554;DHT22;7878;44.632;10.942;2024-01-30T02:35:34;3.50;99.90
15554;DHT22;7878;44.632;10.942;2024-01-30T02:38:00;3.50;99.90
15554;DHT22;7878;44.632;10.942;2024-01-30T02:40:26;3.50;99.90
15554;DHT22;7878;44.632;10.942;2024-01-30T02:42:51;3.50;99.90
15554;DHT22;7878;44.632;10.942;2024-01-30T02:45:17;3.50;99.90
15554;DHT22;7878;44.632;10.942;2024-01-30T02:47:43;3.40;99.90
15554;DHT22;7878;44.632;10.942;2024-01-30T02:50:09;3.40;99.90
15554;DHT22;7878;44.632;10.942;2024-01-30T02:52:35;3.30;99.90
15554;DHT22;7878;44.632;10.942;2024-01-30T02:55:01;3.40;99.90
15554;DHT22;7878;44.632;10.942;2024-01-30T02:57:28;3.40;99.90
15554;DHT22;7878;44.632;10.942;2024-01-30T02:59:53;3.30;99.90
15554;DHT22;7878;44.632;10.942;2024-01-30T03:02:19;3.30;99.90
15554;DHT22;7878;44.632;10.942;2024-01-30T03:04:45;3.30;99.90
15554;DHT22;7878;44.632;10.942;2024-01-30T03:07:11;3.30;99.90
15554;DHT22;7878;44.632;10.942;2024-01-30T03:09:37;3.30;99.90
15554;DHT22;7878;44.632;10.942;2024-01-30T03:12:03;3.40;99.90
15554;DHT22;7878;44.632;10.942;2024-01-30T03:14:32;3.40;99.90
15554;DHT22;7878;44.632;10.942;2024-01-30T03:16:58;3.40;99.90
15554;DHT22;7878;44.632;10.942;2024-01-30T03:19:24;3.30;99.90
15554;DHT22;7878;44.632;10.942;2024-01-30T03:21:50;3.30;99.90
15554;DHT22;7878;44.632;10.942;2024-01-30T03:24:16;3.20;99.90
15554;DHT22;7878;44.632;10.942;2024-01-30T03:26:43;3.20;99.90
15554;DHT22;7878;44.632;10.942;2024-01-30T03:29:09;3.10;99.90
15554;DHT22;7878;44.632;10.942;2024-01-30T03:31:34;3.10;99.90
15554;DHT22;7878;44.632;10.942;2024-01-30T03:34:01;3.10;99.90
15554;DHT22;7878;44.632;10.942;2024-01-30T03:36:27;3.10;99.90
15554;DHT22;7878;44.632;10.942;2024-01-30T03:38:53;3.10;99.90
15554;DHT22;7878;44.632;10.942;2024-01-30T03:41:19;2.90;99.90
15554;DHT22;7878;44.632;10.942;2024-01-30T03:43:44;2.80;99.90
15554;DHT22;7878;44.632;10.942;2024-01-30T03:46:12;2.90;99.90
15554;DHT22;7878;44.632;10.942;2024-01-30T03:48:38;2.90;99.90
15554;DHT22;7878;44.632;10.942;2024-01-30T03:51:05;3.10;99.90
15554;DHT22;7878;44.632;10.942;2024-01-30T03:53:31;3.10;99.90
15554;DHT22;7878;44.632;10.942;2024-01-30T03:55:56;3.20;99.90
15554;DHT22;7878;44.632;10.942;2024-01-30T03:58:22;3.20;99.90
15554;DHT22;7878;44.632;10.942;2024-01-30T04:00:48;3.30;99.90
15554;DHT22;7878;44.632;10.942;2024-01-30T04:03:16;3.30;99.90
15554;DHT22;7878;44.632;10.942;2024-01-30T04:05:42;3.30;99.90
15554;DHT22;7878;44.632;10.942;2024-01-30T04:08:08;3.30;99.90
15554;DHT22;7878;44.632;10.942;2024-01-30T04:10:34;3.30;99.90
15554;DHT22;7878;44.632;10.942;2024-01-30T04:13:00;3.30;99.90
15554;DHT22;7878;44.632;10.942;2024-01-30T04:15:26;3.30;99.90
15554;DHT22;7878;44.632;10.942;2024-01-30T04:17:52;3.30;99.90
15554;DHT22;7878;44.632;10.942;2024-01-30T04:20:18;3.30;99.90
15554;DHT22;7878;44.632;10.942;2024-01-30T04:22:44;3.20;99.90
15554;DHT22;7878;44.632;10.942;2024-01-30T04:25:11;3.30;99.90
15554;DHT22;7878;44.632;10.942;2024-01-30T04:27:37;3.30;99.90
15554;DHT22;7878;44.632;10.942;2024-01-30T04:30:03;3.20;99.90
15554;DHT22;7878;44.632;10.942;2024-01-30T04:32:29;3.00;99.90
15554;DHT22;7878;44.632;10.942;2024-01-30T04:34:55;3.00;99.90
15554;DHT22;7878;44.632;10.942;2024-01-30T04:37:20;3.00;99.90
15554;DHT22;7878;44.632;10.942;2024-01-30T04:39:46;3.10;99.90
15554;DHT22;7878;44.632;10.942;2024-01-30T04:42:12;3.00;99.90
15554;DHT22;7878;44.632;10.942;2024-01-30T04:44:38;2.90;99.90
15554;DHT22;7878;44.632;10.942;2024-01-30T04:47:03;2.90;99.90
15554;DHT22;7878;44.632;10.942;2024-01-30T04:49:31;2.90;99.90
15554;DHT22;7878;44.632;10.942;2024-01-30T04:51:57;2.90;99.90
15554;DHT22;7878;44.632;10.942;2024-01-30T04:54:23;3.00;99.90
15554;DHT22;7878;44.632;10.942;2024-01-30T04:56:49;3.00;99.90
15554;DHT22;7878;44.632;10.942;2024-01-30T04:59:15;3.00;99.90
15554;DHT22;7878;44.632;10.942;2024-01-30T05:01:40;3.10;99.90
15554;DHT22;7878;44.632;10.942;2024-01-30T05:04:09;3.10;99.90
15554;DHT22;7878;44.632;10.942;2024-01-30T05:06:35;3.20;99.90
15554;DHT22;7878;44.632;10.942;2024-01-30T05:09:01;3.30;99.90
15554;DHT22;7878;44.632;10.942;2024-01-30T05:11:27;3.40;99.90
15554;DHT22;7878;44.632;10.942;2024-01-30T05:13:52;3.40;99.90
15554;DHT22;7878;44.632;10.942;2024-01-30T05:16:18;3.30;99.90
15554;DHT22;7878;44.632;10.942;2024-01-30T05:18:44;3.30;99.90
15554;DHT22;7878;44.632;10.942;2024-01-30T05:21:10;3.40;99.90
15554;DHT22;7878;44.632;10.942;2024-01-30T05:23:36;3.40;99.90
15554;DHT22;7878;44.632;10.942;2024-01-30T05:26:02;3.40;99.90
15554;DHT22;7878;44.632;10.942;2024-01-30T05:28:31;3.50;99.90
15554;DHT22;7878;44.632;10.942;2024-01-30T05:30:57;3.50;99.90
15554;DHT22;7878;44.632;10.942;2024-01-30T05:33:23;3.50;99.90
15554;DHT22;7878;44.632;10.942;2024-01-30T05:35:48;3.50;99.90
15554;DHT22;7878;44.632;10.942;2024-01-30T05:38:16;3.60;99.90
15554;DHT22;7878;44.632;10.942;2024-01-30T05:40:41;3.60;99.90
15554;DHT22;7878;44.632;10.942;2024-01-30T05:43:07;3.50;99.90
15554;DHT22;7878;44.632;10.942;2024-01-30T05:45:33;3.50;99.90
15554;DHT22;7878;44.632;10.942;2024-01-30T05:48:00;3.50;99.90
15554;DHT22;7878;44.632;10.942;2024-01-30T05:50:26;3.40;99.90
15554;DHT22;7878;44.632;10.942;2024-01-30T05:52:52;3.10;99.90
15554;DHT22;7878;44.632;10.942;2024-01-30T05:55:18;3.10;99.90
15554;DHT22;7878;44.632;10.942;2024-01-30T05:57:44;3.10;99.90
15554;DHT22;7878;44.632;10.942;2024-01-30T06:00:10;3.20;99.90
15554;DHT22;7878;44.632;10.942;2024-01-30T06:02:36;3.20;99.90
15554;DHT22;7878;44.632;10.942;2024-01-30T06:05:02;3.30;99.90
15554;DHT22;7878;44.632;10.942;2024-01-30T06:07:27;3.30;99.90
15554;DHT22;7878;44.632;10.942;2024-01-30T06:09:53;3.40;99.90
15554;DHT22;7878;44.632;10.942;2024-01-30T06:12:19;3.40;99.90
15554;DHT22;7878;44.632;10.942;2024-01-30T06:14:44;3.40;99.90
15554;DHT22;7878;44.632;10.942;2024-01-30T06:17:10;3.40;99.90
15554;DHT22;7878;44.632;10.942;2024-01-30T06:19:40;3.50;99.90
15554;DHT22;7878;44.632;10.942;2024-01-30T06:22:05;3.50;99.90
15554;DHT22;7878;44.632;10.942;2024-01-30T06:24:31;3.60;99.90
15554;DHT22;7878;44.632;10.942;2024-01-30T06:26:57;3.70;99.90
15554;DHT22;7878;44.632;10.942;2024-01-30T06:29:22;3.60;99.90
15554;DHT22;7878;44.632;10.942;2024-01-30T06:31:50;3.70;99.90
15554;DHT22;7878;44.632;10.942;2024-01-30T06:34:16;3.60;99.90
15554;DHT22;7878;44.632;10.942;2024-01-30T06:36:42;3.60;99.90
15554;DHT22;7878;44.632;10.942;2024-01-30T06:39:07;3.50;99.90
15554;DHT22;7878;44.632;10.942;2024-01-30T06:41:33;3.40;99.90
15554;DHT22;7878;44.632;10.942;2024-01-30T06:43:59;3.40;99.90
15554;DHT22;7878;44.632;10.942;2024-01-30T06:46:25;3.50;99.90
15554;DHT22;7878;44.632;10.942;2024-01-30T06:48:51;3.50;99.90
15554;DHT22;7878;44.632;10.942;2024-01-30T06:51:16;3.50;99.90
15554;DHT22;7878;44.632;10.942;2024-01-30T06:53:42;3.50;99.90
15554;DHT22;7878;44.632;10.942;2024-01-30T06:56:08;3.60;99.90
15554;DHT22;7878;44.632;10.942;2024-01-30T06:58:33;3.60;99.90
15554;DHT22;7878;44.632;10.942;2024-01-30T07:00:59;3.60;99.90
15554;DHT22;7878;44.632;10.942;2024-01-30T07:03:25;3.50;99.90
15554;DHT22;7878;44.632;10.942;2024-01-30T07:05:50;3.50;99.90
15554;DHT22;7878;44.632;10.942;2024-01-30T07:08:17;3.50;99.90
15554;DHT22;7878;44.632;10.942;2024-01-30T07:10:43;3.40;99.90
15554;DHT22;7878;44.632;10.942;2024-01-30T07:13:12;3.40;99.90
15554;DHT22;7878;44.632;10.942;2024-01-30T07:15:38;3.40;99.90
15554;DHT22;7878;44.632;10.942;2024-01-30T07:18:04;3.40;99.90
15554;DHT22;7878;44.632;10.942;2024-01-30T07:20:30;3.40;99.90
15554;DHT22;7878;44.632;10.942;2024-01-30T07:22:58;3.40;99.90
15554;DHT22;7878;44.632;10.942;2024-01-30T07:25:23;3.50;99.90
15554;DHT22;7878;44.632;10.942;2024-01-30T07:27:52;3.40;99.90
15554;DHT22;7878;44.632;10.942;2024-01-30T07:30:19;3.40;99.90
15554;DHT22;7878;44.632;10.942;2024-01-30T07:32:45;3.40;99.90
15554;DHT22;7878;44.632;10.942;2024-01-30T07:35:11;3.40;99.90
15554;DHT22;7878;44.632;10.942;2024-01-30T07:37:36;3.50;99.90
15554;DHT22;7878;44.632;10.942;2024-01-30T07:40:03;3.50;99.90
15554;DHT22;7878;44.632;10.942;2024-01-30T07:42:29;3.50;99.90
15554;DHT22;7878;44.632;10.942;2024-01-30T07:44:55;3.50;99.90
15554;DHT22;7878;44.632;10.942;2024-01-30T07:47:20;3.50;99.90
15554;DHT22;7878;44.632;10.942;2024-01-30T07:49:46;3.50;99.90
15554;DHT22;7878;44.632;10.942;2024-01-30T07:52:13;3.60;99.90
15554;DHT22;7878;44.632;10.942;2024-01-30T07:54:48;3.60;99.90
15554;DHT22;7878;44.632;10.942;2024-01-30T07:57:14;3.70;99.90
15554;DHT22;7878;44.632;10.942;2024-01-30T07:59:42;3.70;99.90
15554;DHT22;7878;44.632;10.942;2024-01-30T08:02:09;3.70;99.90
15554;DHT22;7878;44.632;10.942;2024-01-30T08:04:35;3.80;99.90
15554;DHT22;7878;44.632;10.942;2024-01-30T08:07:00;3.80;99.90
15554;DHT22;7878;44.632;10.942;2024-01-30T08:09:26;3.70;99.90
15554;DHT22;7878;44.632;10.942;2024-01-30T08:11:52;3.70;99.90
15554;DHT22;7878;44.632;10.942;2024-01-30T08:14:18;3.70;99.90
15554;DHT22;7878;44.632;10.942;2024-01-30T08:16:43;3.70;99.90
15554;DHT22;7878;44.632;10.942;2024-01-30T08:19:09;3.80;99.90
15554;DHT22;7878;44.632;10.942;2024-01-30T08:21:35;3.90;99.90
15554;DHT22;7878;44.632;10.942;2024-01-30T08:24:05;4.00;99.90
15554;DHT22;7878;44.632;10.942;2024-01-30T08:26:32;4.00;99.90
15554;DHT22;7878;44.632;10.942;2024-01-30T08:28:58;4.10;99.90
15554;DHT22;7878;44.632;10.942;2024-01-30T08:31:23;4.20;99.90
15554;DHT22;7878;44.632;10.942;2024-01-30T08:33:49;4.20;99.90
15554;DHT22;7878;44.632;10.942;2024-01-30T08:36:16;4.30;99.90
15554;DHT22;7878;44.632;10.942;2024-01-30T08:38:42;4.40;99.90
15554;DHT22;7878;44.632;10.942;2024-01-30T08:41:08;6.00;99.90
15554;DHT22;7878;44.632;10.942;2024-01-30T08:43:34;7.90;99.90
15554;DHT22;7878;44.632;10.942;2024-01-30T08:46:00;9.70;99.90
15554;DHT22;7878;44.632;10.942;2024-01-30T08:48:26;10.60;99.90
15554;DHT22;7878;44.632;10.942;2024-01-30T08:50:52;11.10;99.90
15554;DHT22;7878;44.632;10.942;2024-01-30T08:53:18;12.00;99.80
15554;DHT22;7878;44.632;10.942;2024-01-30T08:55:44;12.50;98.50
15554;DHT22;7878;44.632;10.942;2024-01-30T08:58:10;13.10;97.00
15554;DHT22;7878;44.632;10.942;2024-01-30T09:00:36;13.40;96.10
15554;DHT22;7878;44.632;10.942;2024-01-30T09:03:02;12.90;95.20
15554;DHT22;7878;44.632;10.942;2024-01-30T09:05:28;12.50;95.50
15554;DHT22;7878;44.632;10.942;2024-01-30T09:07:54;12.70;95.70
15554;DHT22;7878;44.632;10.942;2024-01-30T09:10:20;12.50;95.50
15554;DHT22;7878;44.632;10.942;2024-01-30T09:12:46;12.90;95.00
15554;DHT22;7878;44.632;10.942;2024-01-30T09:15:12;13.60;94.70
15554;DHT22;7878;44.632;10.942;2024-01-30T09:17:38;13.20;93.70
15554;DHT22;7878;44.632;10.942;2024-01-30T09:20:04;12.30;93.50
15554;DHT22;7878;44.632;10.942;2024-01-30T09:22:30;11.40;94.10
15554;DHT22;7878;44.632;10.942;2024-01-30T09:24:57;10.70;94.60
15554;DHT22;7878;44.632;10.942;2024-01-30T09:27:22;10.20;95.10
15554;DHT22;7878;44.632;10.942;2024-01-30T09:29:48;9.60;95.80
15554;DHT22;7878;44.632;10.942;2024-01-30T09:32:14;9.20;96.60
15554;DHT22;7878;44.632;10.942;2024-01-30T09:34:39;9.10;97.10
15554;DHT22;7878;44.632;10.942;2024-01-30T09:37:07;8.90;97.70
15554;DHT22;7878;44.632;10.942;2024-01-30T09:39:32;8.60;97.60
15554;DHT22;7878;44.632;10.942;2024-01-30T09:42:08;8.50;98.40
15554;DHT22;7878;44.632;10.942;2024-01-30T09:44:38;8.30;98.40
15554;DHT22;7878;44.632;10.942;2024-01-30T09:47:07;8.10;99.10
15554;DHT22;7878;44.632;10.942;2024-01-30T09:49:34;8.00;99.30
15554;DHT22;7878;44.632;10.942;2024-01-30T09:52:03;8.00;99.90
15554;DHT22;7878;44.632;10.942;2024-01-30T09:54:30;8.20;99.30
15554;DHT22;7878;44.632;10.942;2024-01-30T09:56:57;8.60;99.40
15554;DHT22;7878;44.632;10.942;2024-01-30T09:59:23;9.00;98.80
15554;DHT22;7878;44.632;10.942;2024-01-30T10:01:50;9.40;98.50
15554;DHT22;7878;44.632;10.942;2024-01-30T10:04:16;10.30;96.60
15554;DHT22;7878;44.632;10.942;2024-01-30T10:06:42;11.90;95.70
15554;DHT22;7878;44.632;10.942;2024-01-30T10:09:08;13.30;94.20
15554;DHT22;7878;44.632;10.942;2024-01-30T10:11:36;14.50;92.30
15554;DHT22;7878;44.632;10.942;2024-01-30T10:14:02;14.90;90.40
15554;DHT22;7878;44.632;10.942;2024-01-30T10:16:28;14.80;90.00
15554;DHT22;7878;44.632;10.942;2024-01-30T10:18:54;14.40;89.20
15554;DHT22;7878;44.632;10.942;2024-01-30T10:21:20;14.30;90.10
15554;DHT22;7878;44.632;10.942;2024-01-30T10:23:46;15.80;90.90
15554;DHT22;7878;44.632;10.942;2024-01-30T10:26:12;18.80;88.40
15554;DHT22;7878;44.632;10.942;2024-01-30T10:28:38;20.60;84.10
15554;DHT22;7878;44.632;10.942;2024-01-30T10:31:04;21.60;78.60
15554;DHT22;7878;44.632;10.942;2024-01-30T10:33:30;22.50;74.40
15554;DHT22;7878;44.632;10.942;2024-01-30T10:36:00;23.10;71.10
15554;DHT22;7878;44.632;10.942;2024-01-30T10:38:29;23.80;67.40
15554;DHT22;7878;44.632;10.942;2024-01-30T10:40:59;24.40;67.00
15554;DHT22;7878;44.632;10.942;2024-01-30T10:43:35;24.80;64.20
15554;DHT22;7878;44.632;10.942;2024-01-30T10:46:21;23.40;59.60
15554;DHT22;7878;44.632;10.942;2024-01-30T10:48:58;21.00;59.60
15554;DHT22;7878;44.632;10.942;2024-01-30T10:51:26;19.80;63.00
15554;DHT22;7878;44.632;10.942;2024-01-30T10:53:53;19.70;66.50
15554;DHT22;7878;44.632;10.942;2024-01-30T10:56:21;21.90;68.90
15554;DHT22;7878;44.632;10.942;2024-01-30T10:58:48;23.70;65.30
15554;DHT22;7878;44.632;10.942;2024-01-30T11:01:14;25.10;67.50
15554;DHT22;7878;44.632;10.942;2024-01-30T11:03:41;26.40;65.60
15554;DHT22;7878;44.632;10.942;2024-01-30T11:06:11;27.20;62.60
15554;DHT22;7878;44.632;10.942;2024-01-30T11:08:37;27.60;59.00
15554;DHT22;7878;44.632;10.942;2024-01-30T11:11:08;27.90;62.10
15554;DHT22;7878;44.632;10.942;2024-01-30T11:13:34;28.70;57.00
15554;DHT22;7878;44.632;10.942;2024-01-30T11:16:04;28.90;59.20
15554;DHT22;7878;44.632;10.942;2024-01-30T11:18:31;29.30;57.90
15554;DHT22;7878;44.632;10.942;2024-01-30T11:20:58;29.10;56.60
15554;DHT22;7878;44.632;10.942;2024-01-30T11:23:26;26.40;56.90
15554;DHT22;7878;44.632;10.942;2024-01-30T11:25:56;24.10;59.10
15554;DHT22;7878;44.632;10.942;2024-01-30T11:28:23;24.60;58.00
15554;DHT22;7878;44.632;10.942;2024-01-30T11:30:49;26.40;59.80
15554;DHT22;7878;44.632;10.942;2024-01-30T11:33:28;27.40;58.60
15554;DHT22;7878;44.632;10.942;2024-01-30T11:35:57;26.10;54.50
15554;DHT22;7878;44.632;10.942;2024-01-30T11:38:26;24.40;58.20
15554;DHT22;7878;44.632;10.942;2024-01-30T11:40:52;24.80;59.30
15554;DHT22;7878;44.632;10.942;2024-01-30T11:43:18;23.90;59.40
15554;DHT22;7878;44.632;10.942;2024-01-30T11:45:44;23.30;61.00
15554;DHT22;7878;44.632;10.942;2024-01-30T11:48:12;22.90;59.70
15554;DHT22;7878;44.632;10.942;2024-01-30T11:50:38;22.70;62.10
15554;DHT22;7878;44.632;10.942;2024-01-30T11:53:05;24.10;61.80
15554;DHT22;7878;44.632;10.942;2024-01-30T11:55:31;25.10;61.20
15554;DHT22;7878;44.632;10.942;2024-01-30T11:57:57;25.70;59.60
15554;DHT22;7878;44.632;10.942;2024-01-30T12:00:24;25.90;59.50
15554;DHT22;7878;44.632;10.942;2024-01-30T12:02:51;26.20;59.60
15554;DHT22;7878;44.632;10.942;2024-01-30T12:05:19;26.30;57.80
15554;DHT22;7878;44.632;10.942;2024-01-30T12:07:45;26.50;57.40
15554;DHT22;7878;44.632;10.942;2024-01-30T12:10:13;26.00;57.30
15554;DHT22;7878;44.632;10.942;2024-01-30T12:12:46;24.40;57.80
15554;DHT22;7878;44.632;10.942;2024-01-30T12:15:13;22.60;58.30
15554;DHT22;7878;44.632;10.942;2024-01-30T12:17:39;21.30;59.40
15554;DHT22;7878;44.632;10.942;2024-01-30T12:20:10;20.90;60.60
15554;DHT22;7878;44.632;10.942;2024-01-30T12:22:37;22.90;58.80
15554;DHT22;7878;44.632;10.942;2024-01-30T12:27:36;25.90;55.80
15554;DHT22;7878;44.632;10.942;2024-01-30T12:30:08;25.50;56.40
15554;DHT22;7878;44.632;10.942;2024-01-30T12:32:39;25.70;54.70
15554;DHT22;7878;44.632;10.942;2024-01-30T12:35:10;25.60;53.70
15554;DHT22;7878;44.632;10.942;2024-01-30T12:37:37;24.70;54.50
15554;DHT22;7878;44.632;10.942;2024-01-30T12:40:03;23.50;55.10
15554;DHT22;7878;44.632;10.942;2024-01-30T12:42:28;22.30;57.70
15554;DHT22;7878;44.632;10.942;2024-01-30T12:44:56;22.00;58.50
15554;DHT22;7878;44.632;10.942;2024-01-30T12:47:22;21.90;58.40
15554;DHT22;7878;44.632;10.942;2024-01-30T12:49:47;21.10;59.60
15554;DHT22;7878;44.632;10.942;2024-01-30T12:52:16;19.50;60.60
15554;DHT22;7878;44.632;10.942;2024-01-30T12:54:41;18.50;61.20
15554;DHT22;7878;44.632;10.942;2024-01-30T12:57:07;17.70;62.90
15554;DHT22;7878;44.632;10.942;2024-01-30T12:59:33;17.90;64.30
15554;DHT22;7878;44.632;10.942;2024-01-30T13:02:01;19.00;61.70
15554;DHT22;7878;44.632;10.942;2024-01-30T13:04:27;21.10;60.00
15554;DHT22;7878;44.632;10.942;2024-01-30T13:06:53;23.50;57.90
15554;DHT22;7878;44.632;10.942;2024-01-30T13:09:19;24.70;57.80
15554;DHT22;7878;44.632;10.942;2024-01-30T13:14:11;23.50;55.90
15554;DHT22;7878;44.632;10.942;2024-01-30T13:16:36;22.30;57.20
15554;DHT22;7878;44.632;10.942;2024-01-30T13:19:02;19.80;58.40
15554;DHT22;7878;44.632;10.942;2024-01-30T13:21:28;17.90;61.70
15554;DHT22;7878;44.632;10.942;2024-01-30T13:23:54;16.60;63.10
15554;DHT22;7878;44.632;10.942;2024-01-30T13:26:21;15.70;65.10
15554;DHT22;7878;44.632;10.942;2024-01-30T13:28:47;15.10;66.30
15554;DHT22;7878;44.632;10.942;2024-01-30T13:31:14;14.70;68.30
15554;DHT22;7878;44.632;10.942;2024-01-30T13:33:40;14.50;69.40
15554;DHT22;7878;44.632;10.942;2024-01-30T13:36:07;14.30;70.20
15554;DHT22;7878;44.632;10.942;2024-01-30T13:38:33;14.10;71.60
15554;DHT22;7878;44.632;10.942;2024-01-30T13:40:59;13.90;72.40
15554;DHT22;7878;44.632;10.942;2024-01-30T13:43:26;13.70;73.10
15554;DHT22;7878;44.632;10.942;2024-01-30T13:45:51;13.50;73.70
15554;DHT22;7878;44.632;10.942;2024-01-30T13:48:17;13.50;74.10
15554;DHT22;7878;44.632;10.942;2024-01-30T13:50:43;13.40;74.30
15554;DHT22;7878;44.632;10.942;2024-01-30T13:53:09;13.40;74.50
15554;DHT22;7878;44.632;10.942;2024-01-30T13:55:34;13.40;75.50
15554;DHT22;7878;44.632;10.942;2024-01-30T13:58:00;13.20;75.90
15554;DHT22;7878;44.632;10.942;2024-01-30T14:00:27;13.10;76.60
15554;DHT22;7878;44.632;10.942;2024-01-30T14:02:53;13.00;76.90
15554;DHT22;7878;44.632;10.942;2024-01-30T14:05:23;12.80;76.30
15554;DHT22;7878;44.632;10.942;2024-01-30T14:07:50;12.70;77.90
15554;DHT22;7878;44.632;10.942;2024-01-30T14:10:16;12.70;80.10
15554;DHT22;7878;44.632;10.942;2024-01-30T14:12:43;12.70;81.00
15554;DHT22;7878;44.632;10.942;2024-01-30T14:15:13;12.60;80.40
15554;DHT22;7878;44.632;10.942;2024-01-30T14:17:40;12.50;80.40
15554;DHT22;7878;44.632;10.942;2024-01-30T14:20:07;12.50;81.60
15554;DHT22;7878;44.632;10.942;2024-01-30T14:22:36;12.40;80.50
15554;DHT22;7878;44.632;10.942;2024-01-30T14:25:01;12.40;81.70
15554;DHT22;7878;44.632;10.942;2024-01-30T14:27:31;12.40;81.90
15554;DHT22;7878;44.632;10.942;2024-01-30T14:29:57;12.30;82.00
15554;DHT22;7878;44.632;10.942;2024-01-30T14:32:23;12.30;82.10
15554;DHT22;7878;44.632;10.942;2024-01-30T14:34:50;12.20;81.10
15554;DHT22;7878;44.632;10.942;2024-01-30T14:37:16;12.10;81.80
15554;DHT22;7878;44.632;10.942;2024-01-30T14:39:42;12.00;82.40
15554;DHT22;7878;44.632;10.942;2024-01-30T14:42:07;12.00;83.10
15554;DHT22;7878;44.632;10.942;2024-01-30T14:44:33;11.80;82.10
15554;DHT22;7878;44.632;10.942;2024-01-30T14:47:02;11.80;82.40
15554;DHT22;7878;44.632;10.942;2024-01-30T14:49:27;11.70;83.20
15554;DHT22;7878;44.632;10.942;2024-01-30T14:51:53;11.70;83.80
15554;DHT22;7878;44.632;10.942;2024-01-30T14:54:19;11.70;83.70
15554;DHT22;7878;44.632;10.942;2024-01-30T14:56:45;11.60;82.80
15554;DHT22;7878;44.632;10.942;2024-01-30T14:59:11;11.60;83.50
15554;DHT22;7878;44.632;10.942;2024-01-30T15:01:37;11.50;83.60
15554;DHT22;7878;44.632;10.942;2024-01-30T15:04:03;11.40;84.60
15554;DHT22;7878;44.632;10.942;2024-01-30T15:06:29;11.40;84.30
15554;DHT22;7878;44.632;10.942;2024-01-30T15:08:55;11.40;84.70
15554;DHT22;7878;44.632;10.942;2024-01-30T15:11:21;11.30;86.70
15554;DHT22;7878;44.632;10.942;2024-01-30T15:13:46;11.40;86.20
15554;DHT22;7878;44.632;10.942;2024-01-30T15:16:12;11.30;86.00
15554;DHT22;7878;44.632;10.942;2024-01-30T15:18:38;11.30;87.00
15554;DHT22;7878;44.632;10.942;2024-01-30T15:21:04;11.30;87.00
15554;DHT22;7878;44.632;10.942;2024-01-30T15:23:29;11.20;87.40
15554;DHT22;7878;44.632;10.942;2024-01-30T15:25:55;11.20;87.70
15554;DHT22;7878;44.632;10.942;2024-01-30T15:28:35;11.10;88.10
15554;DHT22;7878;44.632;10.942;2024-01-30T15:31:02;11.10;87.90
15554;DHT22;7878;44.632;10.942;2024-01-30T15:33:27;11.00;88.40
15554;DHT22;7878;44.632;10.942;2024-01-30T15:35:53;11.00;89.20
15554;DHT22;7878;44.632;10.942;2024-01-30T15:38:19;10.90;89.50
15554;DHT22;7878;44.632;10.942;2024-01-30T15:40:46;10.90;90.00